Terminal Aerodrome Forecast
Issued by NWS Corpus Christi, TX

Home | Current Version | Previous Version | Text Only | Print | Product List | Glossary On
Versions: 1 2 3 4 5 6 7 8 9 10 11 12 13 14
000
FTUS44 KCRP 172338
TAFCRP
TAF
KCRP 172338Z 1800/1824 36004KT P6SM OVC006
     FM180700 35004KT 3SM BR OVC004
     FM181600 05008KT 6SM BR VCSH OVC008=

USA.gov is the U.S. government's official web portal to all federal, state and local government web resources and services.